createdAt,value
2022-08-17T00:01:39.999Z,26.50
2022-08-17T00:04:19.188Z,26.50
2022-08-17T00:06:46.149Z,26.40
2022-08-17T00:09:18.420Z,26.40
2022-08-17T00:12:41.357Z,26.40
2022-08-17T00:14:35.109Z,26.30
2022-08-17T00:17:03.623Z,26.30
2022-08-17T00:19:32.390Z,26.30
2022-08-17T00:22:31.733Z,26.20
2022-08-17T00:24:47.271Z,26.20
2022-08-17T00:27:13.965Z,26.10
2022-08-17T00:29:41.023Z,26.10
2022-08-17T00:33:13.957Z,26.10
2022-08-17T00:34:54.405Z,26.00
2022-08-17T00:37:21.031Z,26.00
2022-08-17T00:39:47.765Z,25.90
2022-08-17T00:42:16.410Z,25.90
2022-08-17T00:44:43.122Z,25.90
2022-08-17T00:47:09.825Z,25.80
2022-08-17T00:49:36.517Z,25.80
2022-08-17T00:52:11.918Z,25.80
2022-08-17T00:54:41.954Z,25.80
2022-08-17T00:57:15.269Z,25.80
2022-08-17T01:00:02.714Z,25.70
2022-08-17T01:02:42.253Z,25.70
2022-08-17T01:05:15.325Z,25.70
2022-08-17T01:07:42.811Z,25.70
2022-08-17T01:10:58.954Z,25.70
2022-08-17T01:12:59.971Z,25.70
2022-08-17T01:15:27.047Z,25.60
2022-08-17T01:17:53.740Z,25.60
2022-08-17T01:20:20.526Z,25.60
2022-08-17T01:22:47.269Z,25.60
2022-08-17T01:25:14.770Z,25.60
2022-08-17T01:27:42.237Z,25.50
2022-08-17T01:30:56.825Z,25.50
2022-08-17T01:32:58.973Z,25.50
2022-08-17T01:35:25.805Z,25.50
2022-08-17T01:37:52.813Z,25.40
2022-08-17T01:40:37.680Z,25.40
2022-08-17T01:43:11.778Z,25.40
2022-08-17T01:45:47.580Z,25.30
2022-08-17T01:48:14.552Z,25.30
2022-08-17T01:50:43.769Z,25.30
2022-08-17T01:53:18.103Z,25.30
2022-08-17T01:55:50.043Z,25.30
2022-08-17T01:58:17.853Z,25.20
2022-08-17T02:00:59.704Z,25.20
2022-08-17T02:03:28.724Z,25.20
2022-08-17T02:05:55.684Z,25.20
2022-08-17T02:08:39.116Z,25.20
2022-08-17T02:11:12.029Z,25.10
2022-08-17T02:13:39.180Z,25.10
2022-08-17T02:16:06.707Z,25.10
2022-08-17T02:18:33.438Z,25.10
2022-08-17T02:21:00.340Z,25.10
2022-08-17T02:23:30.084Z,25.10
2022-08-17T02:25:58.547Z,25.10
2022-08-17T02:28:25.206Z,25.10
2022-08-17T02:31:02.155Z,25.10
2022-08-17T02:33:37.292Z,25.10
2022-08-17T02:36:11.675Z,25.00
2022-08-17T02:38:39.935Z,25.00
2022-08-17T02:41:06.879Z,25.00
2022-08-17T02:43:33.628Z,25.00
2022-08-17T02:46:00.297Z,25.00
2022-08-17T02:48:30.807Z,25.00
2022-08-17T02:50:58.834Z,25.00
2022-08-17T02:53:25.857Z,24.90
2022-08-17T02:55:52.994Z,24.90
2022-08-17T02:58:34.514Z,24.90
2022-08-17T03:01:07.136Z,24.90
2022-08-17T03:03:34.712Z,24.90
2022-08-17T03:06:01.783Z,24.90
2022-08-17T03:08:28.634Z,24.90
2022-08-17T03:10:55.554Z,24.80
2022-08-17T03:13:22.553Z,24.80
2022-08-17T03:15:49.840Z,24.80
2022-08-17T03:18:25.082Z,24.70
2022-08-17T03:20:58.525Z,24.70
2022-08-17T03:23:26.392Z,24.70
2022-08-17T03:25:54.733Z,24.70
2022-08-17T03:28:22.626Z,24.70
2022-08-17T03:30:51.000Z,24.60
2022-08-17T03:33:19.071Z,24.60
2022-08-17T03:35:46.229Z,24.60
2022-08-17T03:38:15.295Z,24.60
2022-08-17T03:40:56.878Z,24.50
2022-08-17T03:43:31.013Z,24.50
2022-08-17T03:46:34.030Z,24.50
2022-08-17T03:49:21.696Z,24.40
2022-08-17T03:52:07.247Z,24.40
2022-08-17T03:54:52.548Z,24.40
2022-08-17T03:57:19.549Z,24.30
2022-08-17T03:59:46.439Z,24.30
2022-08-17T04:02:19.685Z,24.30
2022-08-17T04:04:46.834Z,24.20
2022-08-17T04:07:13.618Z,24.20
2022-08-17T04:09:40.259Z,24.10
2022-08-17T04:12:07.155Z,24.10
2022-08-17T04:14:37.875Z,24.10
2022-08-17T04:17:20.230Z,24.10
2022-08-17T04:19:46.977Z,24.00
2022-08-17T04:22:32.945Z,24.00
2022-08-17T04:25:13.992Z,24.00
2022-08-17T04:27:40.888Z,24.00
2022-08-17T04:30:08.336Z,23.90
2022-08-17T04:33:03.691Z,23.90
2022-08-17T04:35:37.185Z,23.90
2022-08-17T04:38:04.866Z,23.90
2022-08-17T04:40:50.032Z,23.90
2022-08-17T04:43:20.116Z,23.80
2022-08-17T04:45:56.296Z,23.80
2022-08-17T04:48:32.253Z,23.80
2022-08-17T04:51:10.464Z,23.80
2022-08-17T04:53:38.398Z,23.80
2022-08-17T04:56:05.940Z,23.80
2022-08-17T04:58:32.893Z,23.80
2022-08-17T05:00:59.777Z,23.80
2022-08-17T05:03:26.482Z,23.80
2022-08-17T05:05:53.670Z,23.80
2022-08-17T05:08:21.056Z,23.80
2022-08-17T05:10:48.771Z,23.90
2022-08-17T05:13:19.024Z,23.90
2022-08-17T05:15:47.862Z,23.90
2022-08-17T05:18:15.384Z,23.90
2022-08-17T05:20:42.478Z,23.90
2022-08-17T05:23:12.523Z,23.90
2022-08-17T05:25:43.165Z,23.90
2022-08-17T05:28:15.457Z,23.90
2022-08-17T05:30:44.527Z,24.00
2022-08-17T05:33:19.253Z,24.00
2022-08-17T05:35:48.719Z,24.00
2022-08-17T05:38:17.304Z,24.00
2022-08-17T05:40:44.785Z,24.00
2022-08-17T05:43:14.726Z,24.00
2022-08-17T05:45:57.709Z,24.00
2022-08-17T05:48:35.678Z,24.10
2022-08-17T05:51:26.332Z,24.10
2022-08-17T05:54:11.532Z,24.20
2022-08-17T05:56:53.438Z,24.20
2022-08-17T05:59:57.652Z,24.30
2022-08-17T06:02:47.533Z,24.30
2022-08-17T06:05:33.537Z,24.40
2022-08-17T06:08:21.867Z,24.50
2022-08-17T06:10:54.318Z,24.50
2022-08-17T06:14:03.731Z,24.60
2022-08-17T06:16:38.717Z,24.60
2022-08-17T06:19:23.046Z,24.70
2022-08-17T06:21:52.687Z,24.70
2022-08-17T06:24:34.286Z,24.70
2022-08-17T06:27:12.352Z,24.80
2022-08-17T06:30:00.592Z,24.90
2022-08-17T06:32:28.354Z,24.90
2022-08-17T06:34:55.610Z,25.00
2022-08-17T06:37:42.083Z,25.00
2022-08-17T06:40:19.584Z,25.10
2022-08-17T06:43:07.992Z,25.10
2022-08-17T06:45:38.806Z,25.20
2022-08-17T06:48:24.228Z,25.20
2022-08-17T06:51:03.523Z,25.30
2022-08-17T06:53:38.257Z,25.40
2022-08-17T06:56:11.016Z,25.40
2022-08-17T06:58:40.470Z,25.50
2022-08-17T07:01:07.228Z,25.50
2022-08-17T07:03:46.659Z,25.50
2022-08-17T07:06:20.850Z,25.60
2022-08-17T07:09:10.301Z,25.80
2022-08-17T07:11:43.944Z,25.90
2022-08-17T07:14:31.886Z,26.10
2022-08-17T07:17:02.638Z,26.30
2022-08-17T07:19:32.723Z,26.50
2022-08-17T07:22:16.427Z,26.70
2022-08-17T07:24:58.177Z,27.00
2022-08-17T07:27:32.304Z,27.30
2022-08-17T07:30:10.314Z,27.60
2022-08-17T07:32:57.269Z,27.90
2022-08-17T07:35:37.567Z,28.20
2022-08-17T07:38:25.972Z,28.50
2022-08-17T07:41:02.487Z,28.70
2022-08-17T07:43:34.443Z,28.90
2022-08-17T07:46:38.071Z,29.20
2022-08-17T07:49:07.707Z,29.30
2022-08-17T07:51:39.168Z,29.60
2022-08-17T07:54:15.138Z,29.90
2022-08-17T07:56:46.085Z,30.10
2022-08-17T07:59:33.364Z,30.40
2022-08-17T08:02:24.167Z,30.60
2022-08-17T08:05:06.545Z,30.70
2022-08-17T08:08:05.971Z,30.90
2022-08-17T08:10:45.203Z,31.00
2022-08-17T08:13:28.688Z,31.10
2022-08-17T08:16:11.534Z,31.10
2022-08-17T08:18:55.970Z,31.10
2022-08-17T08:21:29.590Z,31.10
2022-08-17T08:24:21.530Z,31.00
2022-08-17T08:26:59.047Z,31.00
2022-08-17T08:29:48.763Z,30.90
2022-08-17T08:32:28.445Z,30.80
2022-08-17T08:35:09.410Z,30.70
2022-08-17T08:37:42.030Z,30.70
2022-08-17T08:40:33.664Z,30.50
2022-08-17T08:43:15.638Z,30.50
2022-08-17T08:46:07.262Z,30.40
2022-08-17T08:49:10.279Z,30.40
2022-08-17T08:51:55.722Z,30.40
2022-08-17T08:54:54.702Z,30.30
2022-08-17T08:57:34.632Z,30.30
2022-08-17T09:00:20.415Z,30.30
2022-08-17T09:03:19.988Z,30.30
2022-08-17T09:06:06.724Z,30.30
2022-08-17T09:09:19.845Z,30.30
2022-08-17T09:12:03.805Z,30.30
2022-08-17T09:14:45.106Z,30.30
2022-08-17T09:17:19.275Z,30.40
2022-08-17T09:19:49.123Z,30.40
2022-08-17T09:22:42.549Z,30.50
2022-08-17T09:25:17.394Z,30.60
2022-08-17T09:28:06.544Z,30.70
2022-08-17T09:30:46.382Z,30.80
2022-08-17T09:33:17.557Z,31.00
2022-08-17T09:35:51.008Z,31.20
2022-08-17T09:38:44.921Z,31.40
2022-08-17T09:41:37.891Z,31.70
2022-08-17T09:44:23.708Z,32.00
2022-08-17T09:46:59.899Z,32.20
2022-08-17T09:49:38.821Z,32.40
2022-08-17T09:52:14.596Z,32.60
2022-08-17T09:54:45.914Z,32.70
2022-08-17T09:57:41.037Z,32.90
2022-08-17T10:00:17.857Z,33.00
2022-08-17T10:03:21.984Z,33.10
2022-08-17T10:06:06.426Z,33.30
2022-08-17T10:08:52.493Z,33.50
2022-08-17T10:11:51.962Z,33.60
2022-08-17T10:14:37.595Z,33.70
2022-08-17T10:17:22.889Z,33.80
2022-08-17T10:20:03.541Z,33.90
2022-08-17T10:23:06.354Z,34.00
2022-08-17T10:25:56.774Z,34.10
2022-08-17T10:28:30.068Z,34.20
2022-08-17T10:31:30.778Z,34.20
2022-08-17T10:34:18.631Z,34.30
2022-08-17T10:37:29.620Z,34.20
2022-08-17T10:40:15.057Z,34.20
2022-08-17T10:43:11.490Z,34.10
2022-08-17T10:46:31.133Z,34.00
2022-08-17T10:49:13.331Z,33.90
2022-08-17T10:51:41.900Z,33.80
2022-08-17T10:54:40.047Z,33.70
2022-08-17T10:57:34.492Z,33.60
2022-08-17T11:00:15.746Z,33.50
2022-08-17T11:02:49.865Z,33.40
2022-08-17T11:05:28.851Z,33.40
2022-08-17T11:08:05.222Z,33.30
2022-08-17T11:10:58.494Z,33.30
2022-08-17T11:14:06.110Z,33.30
2022-08-17T11:17:04.789Z,33.30
2022-08-17T11:20:07.244Z,33.20
2022-08-17T11:22:57.728Z,33.30
2022-08-17T11:25:43.740Z,33.20
2022-08-17T11:28:28.126Z,33.20
2022-08-17T11:31:01.571Z,33.10
2022-08-17T11:33:36.829Z,33.10
2022-08-17T11:36:11.679Z,33.20
2022-08-17T11:38:57.771Z,33.10
2022-08-17T11:41:27.541Z,33.00
2022-08-17T11:44:28.130Z,33.10
2022-08-17T11:47:37.748Z,33.00
2022-08-17T11:50:49.563Z,33.00
2022-08-17T11:53:39.259Z,33.10
2022-08-17T11:56:28.841Z,33.10
2022-08-17T11:58:55.777Z,33.10
2022-08-17T12:01:22.611Z,33.10
2022-08-17T12:03:56.852Z,33.20
2022-08-17T12:06:34.596Z,33.20
2022-08-17T12:09:14.271Z,33.20
2022-08-17T12:12:11.140Z,33.30
2022-08-17T12:17:41.640Z,33.30
2022-08-17T12:20:22.024Z,33.30
2022-08-17T12:23:03.585Z,33.20
2022-08-17T12:25:33.970Z,33.20
2022-08-17T12:28:05.195Z,33.10
2022-08-17T12:30:34.911Z,33.10
2022-08-17T12:33:01.701Z,33.00
2022-08-17T12:35:36.702Z,33.00
2022-08-17T12:38:26.808Z,33.00
2022-08-17T12:40:58.040Z,32.90
2022-08-17T12:43:31.053Z,32.90
2022-08-17T12:46:01.245Z,32.90
2022-08-17T12:48:59.233Z,32.90
2022-08-17T12:51:28.849Z,32.90
2022-08-17T12:53:56.234Z,32.90
2022-08-17T12:56:22.979Z,32.90
2022-08-17T12:58:54.168Z,32.80
2022-08-17T13:01:23.233Z,32.80
2022-08-17T13:03:52.321Z,32.70
2022-08-17T13:06:34.895Z,32.70
2022-08-17T13:09:20.034Z,32.60
2022-08-17T13:11:55.903Z,32.50
2022-08-17T13:14:22.814Z,32.40
2022-08-17T13:16:53.485Z,32.40
2022-08-17T13:19:32.983Z,32.20
2022-08-17T13:22:11.575Z,32.20
2022-08-17T13:24:38.847Z,32.00
2022-08-17T13:27:09.574Z,32.00
2022-08-17T13:29:44.879Z,31.80
2022-08-17T13:32:13.342Z,31.70
2022-08-17T13:35:12.433Z,31.60
2022-08-17T13:37:38.198Z,31.40
2022-08-17T13:40:10.658Z,31.30
2022-08-17T13:42:52.688Z,31.20
2022-08-17T13:45:35.131Z,31.10
2022-08-17T13:48:15.180Z,31.00
2022-08-17T13:50:55.943Z,30.90
2022-08-17T13:53:33.133Z,30.80
2022-08-17T13:56:37.192Z,30.80
2022-08-17T13:59:06.033Z,30.70
2022-08-17T14:01:46.576Z,30.70
2022-08-17T14:04:19.424Z,30.70
2022-08-17T14:06:58.191Z,30.70
2022-08-17T14:09:38.316Z,30.60
2022-08-17T14:12:10.551Z,30.60
2022-08-17T14:14:37.928Z,30.70
2022-08-17T14:17:05.440Z,30.70
2022-08-17T14:19:34.543Z,30.70
2022-08-17T14:22:01.835Z,30.70
2022-08-17T14:24:44.475Z,30.80
2022-08-17T14:27:17.433Z,30.80
2022-08-17T14:29:44.413Z,30.90
2022-08-17T14:32:24.694Z,30.90
2022-08-17T14:34:52.676Z,30.90
2022-08-17T14:37:21.067Z,31.00
2022-08-17T14:39:47.901Z,31.00
2022-08-17T14:42:17.432Z,31.00
2022-08-17T14:44:44.109Z,31.00
2022-08-17T14:47:14.804Z,31.00
2022-08-17T14:49:42.104Z,31.00
2022-08-17T14:52:12.021Z,30.90
2022-08-17T14:54:42.507Z,31.00
2022-08-17T14:57:33.743Z,30.90
2022-08-17T14:59:59.737Z,30.90
2022-08-17T15:02:29.751Z,31.00
2022-08-17T15:05:04.156Z,31.00
2022-08-17T15:07:31.662Z,31.00
2022-08-17T15:10:01.597Z,31.00
2022-08-17T15:12:33.067Z,31.00
2022-08-17T15:15:01.500Z,31.00
2022-08-17T15:17:44.566Z,31.00
2022-08-17T15:20:18.704Z,31.10
2022-08-17T15:22:49.277Z,31.10
2022-08-17T15:25:17.348Z,31.20
2022-08-17T15:27:44.105Z,31.20
2022-08-17T15:30:11.676Z,31.20
2022-08-17T15:32:40.767Z,31.20
2022-08-17T15:35:11.666Z,31.20
2022-08-17T15:37:40.203Z,31.10
2022-08-17T15:40:08.789Z,31.10
2022-08-17T15:42:35.866Z,31.10
2022-08-17T15:45:09.136Z,31.00
2022-08-17T15:47:36.969Z,31.00
2022-08-17T15:50:08.621Z,31.00
2022-08-17T15:52:40.386Z,30.90
2022-08-17T15:55:10.766Z,30.90
2022-08-17T15:57:37.552Z,30.80
2022-08-17T16:00:06.911Z,30.80
2022-08-17T16:03:44.370Z,30.80
2022-08-17T16:05:31.203Z,30.70
2022-08-17T16:07:59.466Z,30.70
2022-08-17T16:10:34.856Z,30.70
2022-08-17T16:13:02.896Z,30.70
2022-08-17T16:15:31.122Z,30.60
2022-08-17T16:17:57.857Z,30.60
2022-08-17T16:20:24.547Z,30.60
2022-08-17T16:22:51.515Z,30.70
2022-08-17T16:25:23.391Z,30.70
2022-08-17T16:28:10.151Z,30.70
2022-08-17T16:30:38.128Z,30.80
2022-08-17T16:33:04.970Z,30.70
2022-08-17T16:35:31.766Z,30.70
2022-08-17T16:37:58.688Z,30.70
2022-08-17T16:40:27.642Z,30.70
2022-08-17T16:42:55.347Z,30.70
2022-08-17T16:45:36.691Z,30.60
2022-08-17T16:48:04.303Z,30.60
2022-08-17T16:50:31.905Z,30.60
2022-08-17T16:53:11.561Z,30.60
2022-08-17T16:55:38.825Z,30.50
2022-08-17T16:58:06.582Z,30.40
2022-08-17T17:00:33.677Z,30.40
2022-08-17T17:03:19.866Z,30.30
2022-08-17T17:05:55.196Z,30.30
2022-08-17T17:08:32.937Z,30.30
2022-08-17T17:11:09.383Z,30.20
2022-08-17T17:13:46.996Z,30.20
2022-08-17T17:16:36.839Z,30.10
2022-08-17T17:19:41.271Z,30.10
2022-08-17T17:22:26.702Z,30.10
2022-08-17T17:25:06.558Z,30.00
2022-08-17T17:27:47.906Z,30.00
2022-08-17T17:30:20.566Z,30.00
2022-08-17T17:32:58.641Z,29.90
2022-08-17T17:35:31.830Z,29.90
2022-08-17T17:38:15.130Z,29.90
2022-08-17T17:40:48.217Z,29.90
2022-08-17T17:43:38.153Z,29.80
2022-08-17T17:46:27.154Z,29.80
2022-08-17T17:48:59.257Z,29.80
2022-08-17T17:52:09.556Z,29.70
2022-08-17T17:55:06.388Z,29.70
2022-08-17T17:57:58.385Z,29.60
2022-08-17T18:00:59.824Z,29.70
2022-08-17T18:03:43.564Z,29.50
2022-08-17T18:06:15.381Z,29.50
2022-08-17T18:08:45.694Z,29.50
2022-08-17T18:11:34.768Z,29.40
2022-08-17T18:14:04.963Z,29.30
2022-08-17T18:16:32.883Z,29.30
2022-08-17T18:19:00.426Z,29.30
2022-08-17T18:21:37.937Z,29.20
2022-08-17T18:24:07.396Z,29.20
2022-08-17T18:26:52.964Z,29.10
2022-08-17T18:29:27.646Z,29.10
2022-08-17T18:32:25.882Z,29.00
2022-08-17T18:34:58.735Z,29.00
2022-08-17T18:37:35.778Z,28.90
2022-08-17T18:40:29.065Z,28.90
2022-08-17T18:43:13.070Z,28.80
2022-08-17T18:45:47.058Z,28.80
2022-08-17T18:48:23.108Z,28.80
2022-08-17T18:50:53.493Z,28.70
2022-08-17T18:53:33.425Z,28.70
2022-08-17T18:56:31.412Z,28.70
2022-08-17T18:59:42.656Z,28.60
2022-08-17T19:02:22.045Z,28.60
2022-08-17T19:05:13.411Z,28.50
2022-08-17T19:07:40.192Z,28.50
2022-08-17T19:10:30.475Z,28.40
2022-08-17T19:13:01.549Z,28.40
2022-08-17T19:15:45.043Z,28.40
2022-08-17T19:18:42.715Z,28.30
2022-08-17T19:21:19.624Z,28.30
2022-08-17T19:23:54.197Z,28.30
2022-08-17T19:26:50.721Z,28.30
2022-08-17T19:30:01.712Z,28.20
2022-08-17T19:32:34.807Z,28.10
2022-08-17T19:35:02.432Z,28.10
2022-08-17T19:37:38.787Z,28.10
2022-08-17T19:40:52.426Z,28.00
2022-08-17T19:43:57.285Z,28.00
2022-08-17T19:46:48.715Z,28.00
2022-08-17T19:49:52.220Z,27.90
2022-08-17T19:52:43.089Z,27.90
2022-08-17T19:55:20.787Z,27.80
2022-08-17T19:58:18.389Z,27.70
2022-08-17T20:00:51.036Z,27.80
2022-08-17T20:03:26.972Z,27.70
2022-08-17T20:06:15.078Z,27.60
2022-08-17T20:09:00.869Z,27.60
2022-08-17T20:11:41.951Z,27.60
2022-08-17T20:14:23.419Z,27.50
2022-08-17T20:16:50.573Z,27.50
2022-08-17T20:19:36.621Z,27.40
2022-08-17T20:22:18.236Z,27.40
2022-08-17T20:24:54.950Z,27.30
2022-08-17T20:27:33.693Z,27.30
2022-08-17T20:30:29.691Z,27.20
2022-08-17T20:32:58.039Z,27.10
2022-08-17T20:35:39.403Z,27.10
2022-08-17T20:38:10.870Z,27.10
2022-08-17T20:40:40.263Z,27.00
2022-08-17T20:43:33.223Z,27.00
2022-08-17T20:46:21.342Z,27.00
2022-08-17T20:48:55.973Z,26.90
2022-08-17T20:51:40.029Z,26.90
2022-08-17T20:54:27.347Z,26.80
2022-08-17T20:56:57.658Z,26.80
2022-08-17T20:59:25.336Z,26.80
2022-08-17T21:02:23.487Z,26.70
2022-08-17T21:04:50.102Z,26.70
2022-08-17T21:07:43.051Z,26.70
2022-08-17T21:10:40.550Z,26.60
2022-08-17T21:13:16.026Z,26.60
2022-08-17T21:15:51.666Z,26.60
2022-08-17T21:18:21.056Z,26.60
2022-08-17T21:21:19.025Z,26.60
2022-08-17T21:23:48.672Z,26.60
2022-08-17T21:26:29.637Z,26.50
2022-08-17T21:29:32.419Z,26.50
2022-08-17T21:31:59.654Z,26.50
2022-08-17T21:34:27.356Z,26.50
2022-08-17T21:36:56.735Z,26.50
2022-08-17T21:39:39.244Z,26.40
2022-08-17T21:42:07.085Z,26.40
2022-08-17T21:44:41.551Z,26.40
2022-08-17T21:47:32.156Z,26.40
2022-08-17T21:50:20.795Z,26.40
2022-08-17T21:52:49.907Z,26.30
2022-08-17T21:55:30.178Z,26.30
2022-08-17T21:58:14.125Z,26.30
2022-08-17T22:00:44.308Z,26.30
2022-08-17T22:03:23.981Z,26.20
2022-08-17T22:05:51.582Z,26.20
2022-08-17T22:08:24.183Z,26.20
2022-08-17T22:11:00.657Z,26.10
2022-08-17T22:13:29.692Z,26.10
2022-08-17T22:16:28.052Z,26.10
2022-08-17T22:19:00.221Z,26.00
2022-08-17T22:21:27.120Z,26.00
2022-08-17T22:24:03.942Z,26.00
2022-08-17T22:27:10.384Z,25.90
2022-08-17T22:29:44.134Z,25.90
2022-08-17T22:32:11.176Z,25.90
2022-08-17T22:34:40.757Z,25.90
2022-08-17T22:37:28.653Z,25.80
2022-08-17T22:39:59.473Z,25.80
2022-08-17T22:42:28.430Z,25.70
2022-08-17T22:44:55.138Z,25.70
2022-08-17T22:47:30.944Z,25.70
2022-08-17T22:50:03.648Z,25.60
2022-08-17T22:52:56.533Z,25.60
2022-08-17T22:55:43.085Z,25.60
2022-08-17T22:58:31.068Z,25.60
2022-08-17T23:01:31.476Z,25.60
2022-08-17T23:03:58.147Z,25.50
2022-08-17T23:06:25.259Z,25.40
2022-08-17T23:08:54.622Z,25.40
2022-08-17T23:11:36.811Z,25.40
2022-08-17T23:14:13.669Z,25.50
2022-08-17T23:16:42.535Z,25.30
2022-08-17T23:19:10.629Z,25.30
2022-08-17T23:21:37.681Z,25.20
2022-08-17T23:24:07.725Z,25.20
2022-08-17T23:26:37.934Z,25.20
2022-08-17T23:29:08.835Z,25.20
2022-08-17T23:31:37.153Z,25.20
2022-08-17T23:34:06.731Z,25.10
2022-08-17T23:36:36.004Z,25.10
2022-08-17T23:39:03.627Z,25.10
2022-08-17T23:41:33.671Z,25.10
2022-08-17T23:44:01.960Z,25.10
2022-08-17T23:46:28.659Z,25.10
2022-08-17T23:48:55.307Z,25.00
2022-08-17T23:51:27.383Z,25.00
2022-08-17T23:54:07.342Z,25.00
2022-08-17T23:56:40.923Z,24.90
2022-08-17T23:59:07.547Z,24.90
